Terminal Aerodrome Forecast
Issued by NWS Bismarck, ND

Home | Current Version | Previous Version | Text Only | Print | Product List | Glossary On
Versions: 1 2 3 4 5 6 7 8 9 10 11 12 13 14 15 16 17
000
FTUS43 KBIS 220526
TAFBIS
TAF
KBIS 220526Z 2206/2306 26007KT P6SM SKC
     FM221200 23006KT P6SM SKC
     FM221700 21014KT P6SM BKN200
     FM222000 23020G29KT P6SM BKN080
     FM222200 24017G25KT P6SM OVC080 WS020/26030KT
     FM230100 24013KT P6SM BKN090 WS020/26040KT
     FM230300 26013KT P6SM SCT200 WS020/28045KT=

USA.gov is the U.S. government's official web portal to all federal, state and local government web resources and services.